createdAt,value
2017-05-16T00:08:23.688Z,0
2017-05-16T00:18:33.252Z,0
2017-05-16T00:28:42.862Z,0
2017-05-16T00:38:52.465Z,0
2017-05-16T00:49:02.070Z,0
2017-05-16T00:59:11.689Z,0
2017-05-16T01:09:21.283Z,0
2017-05-16T01:19:30.872Z,0
2017-05-16T01:29:40.484Z,0
2017-05-16T01:39:50.100Z,0
2017-05-16T01:49:59.693Z,0
2017-05-16T02:00:09.297Z,0
2017-05-16T02:10:19.013Z,0
2017-05-16T02:20:28.605Z,0
2017-05-16T02:30:38.291Z,0
2017-05-16T02:40:48.016Z,0
2017-05-16T02:50:57.688Z,0
2017-05-16T03:01:07.397Z,0
2017-05-16T03:11:17.221Z,12
2017-05-16T03:21:26.886Z,40
2017-05-16T03:31:36.614Z,132
2017-05-16T03:41:46.386Z,308
2017-05-16T03:51:56.129Z,468
2017-05-16T04:02:05.892Z,952
2017-05-16T04:12:15.631Z,1332
2017-05-16T04:22:25.380Z,1480
2017-05-16T04:32:35.097Z,1744
2017-05-16T04:42:44.764Z,2780
2017-05-16T04:52:54.380Z,4608
2017-05-16T05:03:03.909Z,4488
2017-05-16T05:13:13.458Z,5524
2017-05-16T05:23:22.962Z,6932
2017-05-16T05:33:32.444Z,6704
2017-05-16T05:43:41.914Z,7840
2017-05-16T05:53:51.312Z,7724
2017-05-16T06:04:00.663Z,7912
2017-05-16T06:14:10.017Z,6892
2017-05-16T06:24:19.377Z,7200
2017-05-16T06:34:28.655Z,7628
2017-05-16T06:44:37.980Z,10424
2017-05-16T06:54:47.242Z,12972
2017-05-16T07:04:56.382Z,12700
2017-05-16T07:15:05.526Z,15600
2017-05-16T07:25:14.595Z,22592
2017-05-16T07:35:23.498Z,28416
2017-05-16T07:45:32.199Z,23328
2017-05-16T07:55:40.777Z,24544
2017-05-16T08:05:49.288Z,25632
2017-05-16T08:15:57.733Z,30208
2017-05-16T08:26:06.025Z,31008
2017-05-16T08:36:14.254Z,45184
2017-05-16T08:46:22.342Z,56928
2017-05-16T08:56:30.217Z,45056
2017-05-16T09:06:38.023Z,47936
2017-05-16T09:16:45.903Z,55680
2017-05-16T09:26:53.844Z,68832
2017-05-16T09:37:01.531Z,54400
2017-05-16T09:47:09.060Z,28864
2017-05-16T09:57:16.642Z,75520
2017-05-16T10:07:24.174Z,41472
2017-05-16T10:17:31.674Z,49376
2017-05-16T10:27:39.157Z,34496
2017-05-16T10:37:46.697Z,62080
2017-05-16T10:47:54.167Z,52224
2017-05-16T10:58:01.617Z,77280
2017-05-16T11:08:08.767Z,55008
2017-05-16T11:18:15.999Z,69504
2017-05-16T11:28:23.213Z,51872
2017-05-16T11:38:30.417Z,55968
2017-05-16T11:48:37.675Z,35584
2017-05-16T11:58:45.060Z,24576
2017-05-16T12:08:52.571Z,30720
2017-05-16T12:19:00.077Z,36960
2017-05-16T12:29:07.464Z,43680
2017-05-16T12:39:14.804Z,42432
2017-05-16T12:49:22.072Z,46240
2017-05-16T12:59:29.355Z,44128
2017-05-16T13:09:36.627Z,45152
2017-05-16T13:19:43.903Z,50080
2017-05-16T13:29:51.167Z,48544
2017-05-16T13:39:58.418Z,61280
2017-05-16T13:50:05.656Z,39808
2017-05-16T14:00:12.902Z,46400
2017-05-16T14:10:20.082Z,94688
2017-05-16T14:20:27.039Z,67744
2017-05-16T14:30:33.956Z,56640
2017-05-16T14:40:40.991Z,54976
2017-05-16T14:50:48.027Z,51488
2017-05-16T15:00:55.115Z,69120
2017-05-16T15:11:02.229Z,26656
2017-05-16T15:21:09.519Z,27968
2017-05-16T15:31:16.903Z,24736
2017-05-16T15:41:24.296Z,22688
2017-05-16T15:51:31.768Z,21312
2017-05-16T16:01:39.303Z,18528
2017-05-16T16:11:46.897Z,17952
2017-05-16T16:21:54.601Z,17184
2017-05-16T16:32:02.329Z,15340
2017-05-16T16:42:10.118Z,13652
2017-05-16T16:52:17.974Z,11256
2017-05-16T17:02:25.943Z,9896
2017-05-16T17:12:33.952Z,9860
2017-05-16T17:22:41.987Z,8928
2017-05-16T17:32:50.008Z,8364
2017-05-16T17:42:58.068Z,7904
2017-05-16T17:53:06.152Z,7196
2017-05-16T18:03:14.278Z,5148
2017-05-16T18:13:22.490Z,3596
2017-05-16T18:23:30.794Z,2316
2017-05-16T18:33:39.132Z,1712
2017-05-16T18:43:47.495Z,1160
2017-05-16T18:53:56.010Z,724
2017-05-16T19:04:04.552Z,460
2017-05-16T19:14:13.221Z,228
2017-05-16T19:24:21.922Z,116
2017-05-16T19:34:30.637Z,40
2017-05-16T19:44:39.349Z,8
2017-05-16T19:54:48.114Z,4
2017-05-16T20:04:57.029Z,0
2017-05-16T20:15:05.821Z,0
2017-05-16T20:25:14.726Z,0
2017-05-16T20:35:23.639Z,0
2017-05-16T20:45:32.540Z,0
2017-05-16T20:55:41.497Z,0
2017-05-16T21:05:50.513Z,0
2017-05-16T21:15:59.533Z,0
2017-05-16T21:26:08.570Z,0
2017-05-16T21:36:17.623Z,0
2017-05-16T21:46:26.668Z,0
2017-05-16T21:56:35.718Z,0
2017-05-16T22:06:44.763Z,0
2017-05-16T22:16:53.868Z,0
2017-05-16T22:27:02.973Z,0
2017-05-16T22:37:12.008Z,0
2017-05-16T22:47:21.064Z,0
2017-05-16T22:57:30.106Z,0
2017-05-16T23:07:39.156Z,0
2017-05-16T23:17:48.164Z,0
2017-05-16T23:27:57.209Z,0
2017-05-16T23:38:06.306Z,0
2017-05-16T23:48:15.387Z,0
2017-05-16T23:58:24.474Z,0
